sensor_id;sensor_type;location;lat;lon;timestamp;pressure;altitude;pressure_sealevel;temperature;humidity
11525;BME280;5819;49.648;8.330;2023-05-03T00:00:31;101465.25;;;8.58;90.21
11525;BME280;5819;49.648;8.330;2023-05-03T00:02:59;101465.25;;;8.56;89.91
11525;BME280;5819;49.648;8.330;2023-05-03T00:05:30;101464.34;;;8.59;89.98
11525;BME280;5819;49.648;8.330;2023-05-03T00:07:58;101463.50;;;8.58;90.31
11525;BME280;5819;49.648;8.330;2023-05-03T00:10:26;101469.56;;;8.57;90.20
11525;BME280;5819;49.648;8.330;2023-05-03T00:12:54;101457.59;;;8.50;89.69
11525;BME280;5819;49.648;8.330;2023-05-03T00:15:23;101456.06;;;8.35;90.42
11525;BME280;5819;49.648;8.330;2023-05-03T00:17:52;101456.66;;;8.53;89.77
11525;BME280;5819;49.648;8.330;2023-05-03T00:20:20;101455.63;;;8.63;88.25
11525;BME280;5819;49.648;8.330;2023-05-03T00:22:48;101460.31;;;8.41;90.16
11525;BME280;5819;49.648;8.330;2023-05-03T00:25:16;101455.06;;;8.44;89.36
11525;BME280;5819;49.648;8.330;2023-05-03T00:27:44;101454.41;;;8.33;89.66
11525;BME280;5819;49.648;8.330;2023-05-03T00:30:12;101454.16;;;8.46;89.71
11525;BME280;5819;49.648;8.330;2023-05-03T00:32:40;101458.78;;;8.26;89.56
11525;BME280;5819;49.648;8.330;2023-05-03T00:35:10;101446.84;;;8.15;90.27
11525;BME280;5819;49.648;8.330;2023-05-03T00:37:41;101448.50;;;8.20;90.45
11525;BME280;5819;49.648;8.330;2023-05-03T00:40:17;101452.19;;;8.06;92.15
11525;BME280;5819;49.648;8.330;2023-05-03T00:42:53;101451.97;;;8.19;91.90
11525;BME280;5819;49.648;8.330;2023-05-03T00:45:30;101444.38;;;8.07;90.94
11525;BME280;5819;49.648;8.330;2023-05-03T00:48:03;101426.44;;;7.93;91.88
11525;BME280;5819;49.648;8.330;2023-05-03T00:50:43;101436.75;;;7.98;92.77
11525;BME280;5819;49.648;8.330;2023-05-03T00:53:13;101436.06;;;7.85;93.69
11525;BME280;5819;49.648;8.330;2023-05-03T00:55:43;101437.84;;;7.82;93.93
11525;BME280;5819;49.648;8.330;2023-05-03T00:58:11;101433.31;;;7.97;92.62
11525;BME280;5819;49.648;8.330;2023-05-03T01:00:40;101433.31;;;7.94;92.48
11525;BME280;5819;49.648;8.330;2023-05-03T01:03:09;101428.09;;;7.99;91.80
11525;BME280;5819;49.648;8.330;2023-05-03T01:05:50;101431.75;;;7.83;92.35
11525;BME280;5819;49.648;8.330;2023-05-03T01:08:28;101429.06;;;7.90;91.52
11525;BME280;5819;49.648;8.330;2023-05-03T01:11:03;101429.16;;;7.86;91.84
11525;BME280;5819;49.648;8.330;2023-05-03T01:13:40;101421.22;;;7.96;91.08
11525;BME280;5819;49.648;8.330;2023-05-03T01:16:14;101418.63;;;7.98;90.11
11525;BME280;5819;49.648;8.330;2023-05-03T01:18:45;101422.31;;;7.79;91.47
11525;BME280;5819;49.648;8.330;2023-05-03T01:21:18;101419.03;;;7.68;92.62
11525;BME280;5819;49.648;8.330;2023-05-03T01:23:54;101417.03;;;7.88;90.93
11525;BME280;5819;49.648;8.330;2023-05-03T01:26:26;101420.84;;;7.61;92.46
11525;BME280;5819;49.648;8.330;2023-05-03T01:28:55;101422.91;;;7.35;95.27
11525;BME280;5819;49.648;8.330;2023-05-03T01:31:28;101414.75;;;7.65;92.50
11525;BME280;5819;49.648;8.330;2023-05-03T01:34:07;101413.84;;;7.69;92.58
11525;BME280;5819;49.648;8.330;2023-05-03T01:36:42;101410.63;;;7.50;93.57
11525;BME280;5819;49.648;8.330;2023-05-03T01:39:14;101404.28;;;7.73;92.81
11525;BME280;5819;49.648;8.330;2023-05-03T01:41:48;101403.84;;;7.40;93.40
11525;BME280;5819;49.648;8.330;2023-05-03T01:44:18;101410.66;;;7.47;93.33
11525;BME280;5819;49.648;8.330;2023-05-03T01:46:48;101414.41;;;7.22;94.89
11525;BME280;5819;49.648;8.330;2023-05-03T01:49:16;101407.66;;;7.11;95.65
11525;BME280;5819;49.648;8.330;2023-05-03T01:51:44;101411.91;;;7.18;96.53
11525;BME280;5819;49.648;8.330;2023-05-03T01:54:12;101407.66;;;7.11;95.71
11525;BME280;5819;49.648;8.330;2023-05-03T01:56:39;101410.91;;;7.26;94.48
11525;BME280;5819;49.648;8.330;2023-05-03T01:59:09;101415.41;;;7.12;95.45
11525;BME280;5819;49.648;8.330;2023-05-03T02:01:37;101418.09;;;7.06;96.34
11525;BME280;5819;49.648;8.330;2023-05-03T02:04:06;101422.44;;;7.01;96.29
11525;BME280;5819;49.648;8.330;2023-05-03T02:06:34;101419.75;;;7.09;95.82
11525;BME280;5819;49.648;8.330;2023-05-03T02:09:03;101427.56;;;7.04;95.77
11525;BME280;5819;49.648;8.330;2023-05-03T02:11:30;101431.75;;;7.17;95.48
11525;BME280;5819;49.648;8.330;2023-05-03T02:13:58;101436.00;;;7.21;95.88
11525;BME280;5819;49.648;8.330;2023-05-03T02:16:27;101428.34;;;7.14;93.88
11525;BME280;5819;49.648;8.330;2023-05-03T02:18:55;101436.84;;;7.23;93.47
11525;BME280;5819;49.648;8.330;2023-05-03T02:21:25;101438.47;;;7.30;91.94
11525;BME280;5819;49.648;8.330;2023-05-03T02:23:53;101433.50;;;7.14;92.48
11525;BME280;5819;49.648;8.330;2023-05-03T02:26:21;101437.06;;;7.05;94.59
11525;BME280;5819;49.648;8.330;2023-05-03T02:28:49;101436.25;;;6.98;94.73
11525;BME280;5819;49.648;8.330;2023-05-03T02:31:19;101436.88;;;7.22;93.10
11525;BME280;5819;49.648;8.330;2023-05-03T02:33:48;101438.38;;;7.41;92.28
11525;BME280;5819;49.648;8.330;2023-05-03T02:36:15;101439.47;;;7.22;91.62
11525;BME280;5819;49.648;8.330;2023-05-03T02:38:43;101442.19;;;7.08;92.73
11525;BME280;5819;49.648;8.330;2023-05-03T02:41:11;101451.06;;;6.83;95.51
11525;BME280;5819;49.648;8.330;2023-05-03T02:43:40;101442.31;;;6.96;94.81
11525;BME280;5819;49.648;8.330;2023-05-03T02:46:08;101447.53;;;6.91;93.52
11525;BME280;5819;49.648;8.330;2023-05-03T02:48:35;101451.88;;;6.88;93.35
11525;BME280;5819;49.648;8.330;2023-05-03T02:51:05;101442.28;;;6.99;93.48
11525;BME280;5819;49.648;8.330;2023-05-03T02:53:33;101448.38;;;6.90;93.07
11525;BME280;5819;49.648;8.330;2023-05-03T02:56:02;101448.47;;;6.84;93.43
11525;BME280;5819;49.648;8.330;2023-05-03T02:58:30;101447.56;;;6.87;93.87
11525;BME280;5819;49.648;8.330;2023-05-03T03:01:00;101446.03;;;6.69;94.48
11525;BME280;5819;49.648;8.330;2023-05-03T03:03:29;101448.53;;;6.75;94.39
11525;BME280;5819;49.648;8.330;2023-05-03T03:05:57;101453.75;;;6.74;93.73
11525;BME280;5819;49.648;8.330;2023-05-03T03:08:27;101445.19;;;6.63;94.76
11525;BME280;5819;49.648;8.330;2023-05-03T03:10:59;101452.88;;;6.70;95.82
11525;BME280;5819;49.648;8.330;2023-05-03T03:13:27;101453.72;;;6.77;94.27
11525;BME280;5819;49.648;8.330;2023-05-03T03:15:54;101452.72;;;6.90;94.58
11525;BME280;5819;49.648;8.330;2023-05-03T03:18:22;101451.19;;;6.69;94.01
11525;BME280;5819;49.648;8.330;2023-05-03T03:20:50;101440.75;;;6.81;93.02
11525;BME280;5819;49.648;8.330;2023-05-03T03:23:19;101437.25;;;6.82;93.58
11525;BME280;5819;49.648;8.330;2023-05-03T03:25:49;101439.94;;;6.75;93.92
11525;BME280;5819;49.648;8.330;2023-05-03T03:28:17;101435.75;;;6.58;95.13
11525;BME280;5819;49.648;8.330;2023-05-03T03:30:45;101439.22;;;6.59;95.07
11525;BME280;5819;49.648;8.330;2023-05-03T03:33:19;101443.59;;;6.52;95.24
11525;BME280;5819;49.648;8.330;2023-05-03T03:35:52;101434.06;;;6.54;94.93
11525;BME280;5819;49.648;8.330;2023-05-03T03:38:25;101440.13;;;6.52;95.06
11525;BME280;5819;49.648;8.330;2023-05-03T03:41:00;101437.56;;;6.50;96.55
11525;BME280;5819;49.648;8.330;2023-05-03T03:43:28;101433.34;;;6.40;96.51
11525;BME280;5819;49.648;8.330;2023-05-03T03:45:57;101432.34;;;6.56;95.60
11525;BME280;5819;49.648;8.330;2023-05-03T03:48:26;101429.88;;;6.43;96.82
11525;BME280;5819;49.648;8.330;2023-05-03T03:50:54;101434.28;;;6.30;97.32
11525;BME280;5819;49.648;8.330;2023-05-03T03:53:27;101437.66;;;6.38;96.02
11525;BME280;5819;49.648;8.330;2023-05-03T03:55:55;101430.84;;;6.27;97.17
11525;BME280;5819;49.648;8.330;2023-05-03T03:58:25;101435.03;;;6.44;96.28
11525;BME280;5819;49.648;8.330;2023-05-03T04:00:54;101439.25;;;6.57;95.83
11525;BME280;5819;49.648;8.330;2023-05-03T04:03:24;101431.56;;;6.47;96.08
11525;BME280;5819;49.648;8.330;2023-05-03T04:05:52;101436.81;;;6.38;95.06
11525;BME280;5819;49.648;8.330;2023-05-03T04:08:20;101437.41;;;6.69;95.24
11525;BME280;5819;49.648;8.330;2023-05-03T04:10:49;101436.75;;;6.44;95.28
11525;BME280;5819;49.648;8.330;2023-05-03T04:13:18;101446.25;;;6.40;95.40
11525;BME280;5819;49.648;8.330;2023-05-03T04:15:53;101443.66;;;6.45;95.58
11525;BME280;5819;49.648;8.330;2023-05-03T04:18:21;101442.88;;;6.31;95.58
11525;BME280;5819;49.648;8.330;2023-05-03T04:20:52;101444.50;;;6.45;95.38
11525;BME280;5819;49.648;8.330;2023-05-03T04:23:20;101447.09;;;6.42;95.19
11525;BME280;5819;49.648;8.330;2023-05-03T04:25:48;101454.03;;;6.36;95.41
11525;BME280;5819;49.648;8.330;2023-05-03T04:28:18;101448.78;;;6.46;95.22
11525;BME280;5819;49.648;8.330;2023-05-03T04:30:48;101455.84;;;6.23;96.11
11525;BME280;5819;49.648;8.330;2023-05-03T04:33:23;101455.81;;;6.32;96.42
11525;BME280;5819;49.648;8.330;2023-05-03T04:35:53;101462.56;;;6.48;95.25
11525;BME280;5819;49.648;8.330;2023-05-03T04:38:21;101462.69;;;6.33;94.96
11525;BME280;5819;49.648;8.330;2023-05-03T04:40:50;101457.44;;;6.42;96.46
11525;BME280;5819;49.648;8.330;2023-05-03T04:43:18;101458.28;;;6.44;96.21
11525;BME280;5819;49.648;8.330;2023-05-03T04:45:47;101456.63;;;6.36;96.73
11525;BME280;5819;49.648;8.330;2023-05-03T04:48:19;101457.34;;;6.56;97.47
11525;BME280;5819;49.648;8.330;2023-05-03T04:50:48;101460.06;;;6.35;98.12
11525;BME280;5819;49.648;8.330;2023-05-03T04:53:20;101453.16;;;6.38;98.63
11525;BME280;5819;49.648;8.330;2023-05-03T04:55:57;101454.81;;;6.47;97.81
11525;BME280;5819;49.648;8.330;2023-05-03T04:58:25;101459.88;;;6.59;97.45
11525;BME280;5819;49.648;8.330;2023-05-03T05:00:54;101455.72;;;6.44;97.40
11525;BME280;5819;49.648;8.330;2023-05-03T05:03:27;101454.78;;;6.53;95.99
11525;BME280;5819;49.648;8.330;2023-05-03T05:06:01;101462.47;;;6.61;96.47
11525;BME280;5819;49.648;8.330;2023-05-03T05:08:31;101459.00;;;6.65;95.32
11525;BME280;5819;49.648;8.330;2023-05-03T05:11:00;101461.44;;;6.80;96.25
11525;BME280;5819;49.648;8.330;2023-05-03T05:13:30;101457.13;;;6.80;95.35
11525;BME280;5819;49.648;8.330;2023-05-03T05:15:58;101465.81;;;6.70;96.73
11525;BME280;5819;49.648;8.330;2023-05-03T05:18:26;101458.91;;;6.74;95.86
11525;BME280;5819;49.648;8.330;2023-05-03T05:20:56;101470.00;;;6.85;95.96
11525;BME280;5819;49.648;8.330;2023-05-03T05:23:26;101463.06;;;6.90;95.41
11525;BME280;5819;49.648;8.330;2023-05-03T05:25:55;101469.06;;;6.92;95.62
11525;BME280;5819;49.648;8.330;2023-05-03T05:28:29;101465.50;;;7.03;93.49
11525;BME280;5819;49.648;8.330;2023-05-03T05:31:01;101471.47;;;7.13;93.06
11525;BME280;5819;49.648;8.330;2023-05-03T05:33:30;101467.97;;;7.16;93.68
11525;BME280;5819;49.648;8.330;2023-05-03T05:35:59;101461.88;;;7.21;94.38
11525;BME280;5819;49.648;8.330;2023-05-03T05:38:29;101466.16;;;7.22;92.78
11525;BME280;5819;49.648;8.330;2023-05-03T05:40:59;101453.22;;;7.24;94.30
11525;BME280;5819;49.648;8.330;2023-05-03T05:43:28;101458.34;;;7.27;94.62
11525;BME280;5819;49.648;8.330;2023-05-03T05:45:56;101450.47;;;7.39;92.56
11525;BME280;5819;49.648;8.330;2023-05-03T05:48:24;101464.44;;;7.23;95.09
11525;BME280;5819;49.648;8.330;2023-05-03T05:50:52;101457.41;;;7.35;95.48
11525;BME280;5819;49.648;8.330;2023-05-03T05:53:19;101454.84;;;7.34;93.78
11525;BME280;5819;49.648;8.330;2023-05-03T05:55:55;101455.63;;;7.40;93.75
11525;BME280;5819;49.648;8.330;2023-05-03T05:58:25;101461.47;;;7.58;93.61
11525;BME280;5819;49.648;8.330;2023-05-03T06:00:57;101461.56;;;7.47;94.85
11525;BME280;5819;49.648;8.330;2023-05-03T06:03:28;101465.03;;;7.49;94.78
11525;BME280;5819;49.648;8.330;2023-05-03T06:05:58;101461.31;;;7.68;93.17
11525;BME280;5819;49.648;8.330;2023-05-03T06:08:26;101451.72;;;7.76;92.68
11525;BME280;5819;49.648;8.330;2023-05-03T06:10:56;101447.19;;;7.92;92.45
11525;BME280;5819;49.648;8.330;2023-05-03T06:13:26;101441.16;;;7.91;91.81
11525;BME280;5819;49.648;8.330;2023-05-03T06:15:55;101446.38;;;7.90;91.82
11525;BME280;5819;49.648;8.330;2023-05-03T06:18:23;101448.00;;;7.97;92.09
11525;BME280;5819;49.648;8.330;2023-05-03T06:20:51;101441.78;;;8.09;91.63
11525;BME280;5819;49.648;8.330;2023-05-03T06:23:19;101432.78;;;8.32;92.96
11525;BME280;5819;49.648;8.330;2023-05-03T06:25:48;101432.81;;;8.28;91.09
11525;BME280;5819;49.648;8.330;2023-05-03T06:28:18;101436.00;;;8.48;90.97
11525;BME280;5819;49.648;8.330;2023-05-03T06:30:49;101431.09;;;8.28;90.35
11525;BME280;5819;49.648;8.330;2023-05-03T06:33:18;101435.66;;;8.14;91.99
11525;BME280;5819;49.648;8.330;2023-05-03T06:35:50;101439.56;;;8.41;91.67
11525;BME280;5819;49.648;8.330;2023-05-03T06:38:20;101443.09;;;8.35;92.77
11525;BME280;5819;49.648;8.330;2023-05-03T06:40:49;101450.69;;;8.49;92.73
11525;BME280;5819;49.648;8.330;2023-05-03T06:43:18;101434.72;;;8.73;90.75
11525;BME280;5819;49.648;8.330;2023-05-03T06:46:02;101434.94;;;8.60;91.36
11525;BME280;5819;49.648;8.330;2023-05-03T06:48:29;101443.50;;;8.65;91.40
11525;BME280;5819;49.648;8.330;2023-05-03T06:50:57;101443.31;;;8.75;90.32
11525;BME280;5819;49.648;8.330;2023-05-03T06:53:25;101446.41;;;8.96;91.34
11525;BME280;5819;49.648;8.330;2023-05-03T06:55:54;101431.38;;;9.13;88.77
11525;BME280;5819;49.648;8.330;2023-05-03T06:58:24;101434.91;;;9.09;88.31
11525;BME280;5819;49.648;8.330;2023-05-03T07:00:53;101439.34;;;9.04;89.04
11525;BME280;5819;49.648;8.330;2023-05-03T07:03:20;101428.00;;;9.09;88.59
11525;BME280;5819;49.648;8.330;2023-05-03T07:05:48;101436.28;;;9.28;87.84
11525;BME280;5819;49.648;8.330;2023-05-03T07:08:16;101437.91;;;9.32;87.91
11525;BME280;5819;49.648;8.330;2023-05-03T07:10:44;101434.53;;;9.28;87.02
11525;BME280;5819;49.648;8.330;2023-05-03T07:13:12;101431.69;;;9.40;87.47
11525;BME280;5819;49.648;8.330;2023-05-03T07:15:42;101429.78;;;9.50;87.38
11525;BME280;5819;49.648;8.330;2023-05-03T07:18:11;101433.22;;;9.51;86.75
11525;BME280;5819;49.648;8.330;2023-05-03T07:20:39;101433.22;;;9.51;86.84
11525;BME280;5819;49.648;8.330;2023-05-03T07:23:07;101431.31;;;9.59;87.12
11525;BME280;5819;49.648;8.330;2023-05-03T07:25:35;101428.50;;;9.68;87.11
11525;BME280;5819;49.648;8.330;2023-05-03T07:28:04;101429.19;;;9.77;86.50
11525;BME280;5819;49.648;8.330;2023-05-03T07:30:32;101430.00;;;9.79;85.91
11525;BME280;5819;49.648;8.330;2023-05-03T07:33:01;101420.22;;;9.91;86.59
11525;BME280;5819;49.648;8.330;2023-05-03T07:35:29;101417.19;;;10.10;86.05
11525;BME280;5819;49.648;8.330;2023-05-03T07:37:59;101423.38;;;10.05;86.06
11525;BME280;5819;49.648;8.330;2023-05-03T07:40:27;101416.84;;;10.25;84.87
11525;BME280;5819;49.648;8.330;2023-05-03T07:42:58;101420.31;;;10.26;83.85
11525;BME280;5819;49.648;8.330;2023-05-03T07:45:26;101425.13;;;10.41;85.63
11525;BME280;5819;49.648;8.330;2023-05-03T07:47:54;101418.06;;;10.46;84.40
11525;BME280;5819;49.648;8.330;2023-05-03T07:50:24;101417.56;;;10.66;85.06
11525;BME280;5819;49.648;8.330;2023-05-03T07:52:52;101404.44;;;11.34;83.05
11525;BME280;5819;49.648;8.330;2023-05-03T07:55:22;101397.63;;;11.59;80.03
11525;BME280;5819;49.648;8.330;2023-05-03T07:57:50;101397.22;;;11.43;79.43
11525;BME280;5819;49.648;8.330;2023-05-03T08:00:23;101399.25;;;11.32;79.86
11525;BME280;5819;49.648;8.330;2023-05-03T08:02:51;101400.78;;;11.08;80.78
11525;BME280;5819;49.648;8.330;2023-05-03T08:05:20;101399.53;;;11.23;80.92
11525;BME280;5819;49.648;8.330;2023-05-03T08:07:50;101406.75;;;11.13;81.34
11525;BME280;5819;49.648;8.330;2023-05-03T08:10:18;101403.06;;;11.20;83.05
11525;BME280;5819;49.648;8.330;2023-05-03T08:12:47;101394.31;;;11.23;80.85
11525;BME280;5819;49.648;8.330;2023-05-03T08:15:15;101397.56;;;11.31;83.10
11525;BME280;5819;49.648;8.330;2023-05-03T08:17:44;101389.09;;;11.52;79.21
11525;BME280;5819;49.648;8.330;2023-05-03T08:20:12;101385.09;;;11.41;81.57
11525;BME280;5819;49.648;8.330;2023-05-03T08:22:41;101381.00;;;11.63;79.00
11525;BME280;5819;49.648;8.330;2023-05-03T08:25:11;101380.41;;;11.53;78.61
11525;BME280;5819;49.648;8.330;2023-05-03T08:27:39;101384.28;;;11.68;78.83
11525;BME280;5819;49.648;8.330;2023-05-03T08:30:07;101386.66;;;11.77;78.72
11525;BME280;5819;49.648;8.330;2023-05-03T08:32:36;101390.41;;;11.67;78.52
11525;BME280;5819;49.648;8.330;2023-05-03T08:35:04;101392.06;;;11.69;79.09
11525;BME280;5819;49.648;8.330;2023-05-03T08:37:37;101389.09;;;11.83;80.39
11525;BME280;5819;49.648;8.330;2023-05-03T08:40:07;101380.94;;;11.92;78.84
11525;BME280;5819;49.648;8.330;2023-05-03T08:42:42;101387.75;;;11.98;79.57
11525;BME280;5819;49.648;8.330;2023-05-03T08:45:11;101376.31;;;12.02;77.99
11525;BME280;5819;49.648;8.330;2023-05-03T08:47:40;101383.25;;;12.03;79.95
11525;BME280;5819;49.648;8.330;2023-05-03T08:50:11;101392.78;;;12.30;77.89
11525;BME280;5819;49.648;8.330;2023-05-03T08:52:40;101383.44;;;12.49;77.51
11525;BME280;5819;49.648;8.330;2023-05-03T08:55:10;101384.28;;;12.50;77.69
11525;BME280;5819;49.648;8.330;2023-05-03T08:57:38;101379.09;;;12.48;76.97
11525;BME280;5819;49.648;8.330;2023-05-03T09:00:09;101380.13;;;12.44;79.15
11525;BME280;5819;49.648;8.330;2023-05-03T09:02:39;101379.66;;;12.58;78.64
11525;BME280;5819;49.648;8.330;2023-05-03T09:05:32;101382.16;;;12.86;77.01
11525;BME280;5819;49.648;8.330;2023-05-03T09:08:01;101381.28;;;12.87;77.36
11525;BME280;5819;49.648;8.330;2023-05-03T09:10:29;101377.09;;;12.81;76.97
11525;BME280;5819;49.648;8.330;2023-05-03T09:12:58;101379.75;;;13.04;75.66
11525;BME280;5819;49.648;8.330;2023-05-03T09:15:29;101379.97;;;12.98;76.11
11525;BME280;5819;49.648;8.330;2023-05-03T09:18:12;101373.00;;;13.24;77.38
11525;BME280;5819;49.648;8.330;2023-05-03T09:20:42;101372.53;;;13.36;74.52
11525;BME280;5819;49.648;8.330;2023-05-03T09:23:18;101375.03;;;13.39;75.96
11525;BME280;5819;49.648;8.330;2023-05-03T09:25:49;101374.06;;;13.41;76.01
11525;BME280;5819;49.648;8.330;2023-05-03T09:28:18;101369.22;;;13.54;74.86
11525;BME280;5819;49.648;8.330;2023-05-03T09:30:49;101363.47;;;13.68;72.35
11525;BME280;5819;49.648;8.330;2023-05-03T09:33:27;101352.31;;;13.84;73.51
11525;BME280;5819;49.648;8.330;2023-05-03T09:35:57;101353.53;;;13.97;74.52
11525;BME280;5819;49.648;8.330;2023-05-03T09:38:25;101349.66;;;14.07;74.58
11525;BME280;5819;49.648;8.330;2023-05-03T09:40:53;101343.28;;;14.13;73.65
11525;BME280;5819;49.648;8.330;2023-05-03T09:43:22;101352.53;;;14.22;73.68
11525;BME280;5819;49.648;8.330;2023-05-03T09:45:51;101335.38;;;14.36;71.65
11525;BME280;5819;49.648;8.330;2023-05-03T09:48:20;101327.00;;;14.48;70.95
11525;BME280;5819;49.648;8.330;2023-05-03T09:50:49;101334.78;;;14.50;70.97
11525;BME280;5819;49.648;8.330;2023-05-03T09:53:18;101325.88;;;14.74;70.27
11525;BME280;5819;49.648;8.330;2023-05-03T09:55:48;101308.50;;;14.92;67.57
11525;BME280;5819;49.648;8.330;2023-05-03T09:58:17;101314.75;;;15.27;68.27
11525;BME280;5819;49.648;8.330;2023-05-03T10:00:47;101303.44;;;15.98;67.18
11525;BME280;5819;49.648;8.330;2023-05-03T10:03:23;101293.78;;;16.50;65.04
11525;BME280;5819;49.648;8.330;2023-05-03T10:05:55;101290.56;;;16.95;62.40
11525;BME280;5819;49.648;8.330;2023-05-03T10:08:27;101299.69;;;16.88;65.19
11525;BME280;5819;49.648;8.330;2023-05-03T10:11:01;101285.72;;;17.50;62.24
11525;BME280;5819;49.648;8.330;2023-05-03T10:13:30;101289.13;;;17.52;63.06
11525;BME280;5819;49.648;8.330;2023-05-03T10:16:02;101284.06;;;17.95;61.11
11525;BME280;5819;49.648;8.330;2023-05-03T10:18:36;101293.38;;;17.39;61.64
11525;BME280;5819;49.648;8.330;2023-05-03T10:21:11;101288.19;;;17.22;61.15
11525;BME280;5819;49.648;8.330;2023-05-03T10:24:11;101286.56;;;16.88;60.96
11525;BME280;5819;49.648;8.330;2023-05-03T10:26:40;101275.75;;;17.41;59.07
11525;BME280;5819;49.648;8.330;2023-05-03T10:29:46;101279.28;;;17.56;60.29
11525;BME280;5819;49.648;8.330;2023-05-03T10:32:32;101282.50;;;17.29;62.25
11525;BME280;5819;49.648;8.330;2023-05-03T10:35:05;101286.25;;;17.25;63.36
11525;BME280;5819;49.648;8.330;2023-05-03T10:37:33;101275.22;;;17.35;59.62
11525;BME280;5819;49.648;8.330;2023-05-03T10:40:11;101283.09;;;17.50;59.99
11525;BME280;5819;49.648;8.330;2023-05-03T10:42:44;101301.81;;;16.97;63.99
11525;BME280;5819;49.648;8.330;2023-05-03T10:45:23;101294.13;;;17.25;61.75
11525;BME280;5819;49.648;8.330;2023-05-03T10:48:16;101294.97;;;17.42;61.36
11525;BME280;5819;49.648;8.330;2023-05-03T10:50:48;101294.06;;;17.11;61.53
11525;BME280;5819;49.648;8.330;2023-05-03T10:53:37;101273.84;;;17.74;61.81
11525;BME280;5819;49.648;8.330;2023-05-03T10:56:07;101278.69;;;17.66;63.03
11525;BME280;5819;49.648;8.330;2023-05-03T10:58:37;101259.13;;;17.86;58.44
11525;BME280;5819;49.648;8.330;2023-05-03T11:01:10;101254.13;;;18.11;59.29
11525;BME280;5819;49.648;8.330;2023-05-03T11:03:47;101245.75;;;19.32;59.29
11525;BME280;5819;49.648;8.330;2023-05-03T11:06:29;101241.09;;;19.09;57.73
11525;BME280;5819;49.648;8.330;2023-05-03T11:08:58;101232.97;;;19.12;55.30
11525;BME280;5819;49.648;8.330;2023-05-03T11:11:26;101241.47;;;19.17;56.68
11525;BME280;5819;49.648;8.330;2023-05-03T11:13:54;101230.47;;;19.37;56.98
11525;BME280;5819;49.648;8.330;2023-05-03T11:16:22;101217.66;;;19.58;55.58
11525;BME280;5819;49.648;8.330;2023-05-03T11:18:51;101207.78;;;19.61;54.79
11525;BME280;5819;49.648;8.330;2023-05-03T11:21:19;101213.06;;;19.61;58.39
11525;BME280;5819;49.648;8.330;2023-05-03T11:23:49;101213.22;;;19.32;55.60
11525;BME280;5819;49.648;8.330;2023-05-03T11:26:16;101211.56;;;19.57;55.02
11525;BME280;5819;49.648;8.330;2023-05-03T11:28:49;101196.22;;;20.02;52.47
11525;BME280;5819;49.648;8.330;2023-05-03T11:31:16;101199.97;;;19.73;55.62
11525;BME280;5819;49.648;8.330;2023-05-03T11:33:44;101188.59;;;20.10;54.51
11525;BME280;5819;49.648;8.330;2023-05-03T11:36:13;101193.72;;;19.61;56.33
11525;BME280;5819;49.648;8.330;2023-05-03T11:38:41;101190.94;;;19.50;55.10
11525;BME280;5819;49.648;8.330;2023-05-03T11:41:13;101193.06;;;19.45;54.23
11525;BME280;5819;49.648;8.330;2023-05-03T11:43:42;101192.16;;;19.71;54.27
11525;BME280;5819;49.648;8.330;2023-05-03T11:46:12;101197.22;;;19.74;55.93
11525;BME280;5819;49.648;8.330;2023-05-03T11:48:42;101192.97;;;19.59;54.69
11525;BME280;5819;49.648;8.330;2023-05-03T11:51:10;101191.47;;;19.82;55.13
11525;BME280;5819;49.648;8.330;2023-05-03T11:53:40;101188.09;;;20.05;54.73
11525;BME280;5819;49.648;8.330;2023-05-03T11:56:12;101190.94;;;20.15;54.55
11525;BME280;5819;49.648;8.330;2023-05-03T11:58:52;101193.06;;;20.09;54.72
11525;BME280;5819;49.648;8.330;2023-05-03T12:01:24;101184.88;;;19.75;54.22
11525;BME280;5819;49.648;8.330;2023-05-03T12:03:53;101181.53;;;19.98;54.16
11525;BME280;5819;49.648;8.330;2023-05-03T12:06:22;101172.13;;;20.06;54.40
11525;BME280;5819;49.648;8.330;2023-05-03T12:08:52;101172.78;;;19.97;54.88
11525;BME280;5819;49.648;8.330;2023-05-03T12:11:22;101167.91;;;20.04;55.27
11525;BME280;5819;49.648;8.330;2023-05-03T12:13:57;101162.19;;;19.85;53.26
11525;BME280;5819;49.648;8.330;2023-05-03T12:16:26;101161.16;;;20.38;53.74
11525;BME280;5819;49.648;8.330;2023-05-03T12:18:55;101157.97;;;20.20;53.96
11525;BME280;5819;49.648;8.330;2023-05-03T12:21:43;101153.44;;;20.35;53.47
11525;BME280;5819;49.648;8.330;2023-05-03T12:24:24;101147.53;;;20.31;53.50
11525;BME280;5819;49.648;8.330;2023-05-03T12:26:55;101134.31;;;21.04;50.02
11525;BME280;5819;49.648;8.330;2023-05-03T12:29:23;101132.09;;;20.74;51.17
11525;BME280;5819;49.648;8.330;2023-05-03T12:31:54;101134.56;;;20.65;51.24
11525;BME280;5819;49.648;8.330;2023-05-03T12:34:24;101130.72;;;20.81;51.82
11525;BME280;5819;49.648;8.330;2023-05-03T12:36:55;101118.66;;;21.14;50.10
11525;BME280;5819;49.648;8.330;2023-05-03T12:39:31;101133.22;;;20.83;53.01
11525;BME280;5819;49.648;8.330;2023-05-03T12:42:01;101120.25;;;21.27;49.74
11525;BME280;5819;49.648;8.330;2023-05-03T12:44:31;101132.50;;;21.17;53.47
11525;BME280;5819;49.648;8.330;2023-05-03T12:47:00;101126.78;;;21.34;51.24
11525;BME280;5819;49.648;8.330;2023-05-03T12:49:30;101121.94;;;21.28;50.70
11525;BME280;5819;49.648;8.330;2023-05-03T12:51:58;101115.22;;;20.88;50.10
11525;BME280;5819;49.648;8.330;2023-05-03T12:54:47;101122.75;;;21.18;53.11
11525;BME280;5819;49.648;8.330;2023-05-03T12:57:19;101115.88;;;20.79;52.51
11525;BME280;5819;49.648;8.330;2023-05-03T12:59:50;101116.25;;;20.98;51.20
11525;BME280;5819;49.648;8.330;2023-05-03T13:02:26;101107.50;;;21.09;51.72
11525;BME280;5819;49.648;8.330;2023-05-03T13:04:57;101099.38;;;21.12;50.38
11525;BME280;5819;49.648;8.330;2023-05-03T13:07:27;101094.13;;;21.23;49.37
11525;BME280;5819;49.648;8.330;2023-05-03T13:09:58;101090.47;;;21.47;49.89
11525;BME280;5819;49.648;8.330;2023-05-03T13:12:30;101082.44;;;21.49;50.73
11525;BME280;5819;49.648;8.330;2023-05-03T13:15:00;101087.53;;;21.28;51.56
11525;BME280;5819;49.648;8.330;2023-05-03T13:17:30;101086.38;;;21.43;50.80
11525;BME280;5819;49.648;8.330;2023-05-03T13:19:58;101070.81;;;21.28;48.57
11525;BME280;5819;49.648;8.330;2023-05-03T13:22:27;101074.91;;;21.32;50.38
11525;BME280;5819;49.648;8.330;2023-05-03T13:24:55;101069.34;;;21.24;50.70